Time;durP1;ratioP1;P1;durP2;ratioP2;P2;SDS_P1;SDS_P2;PMS_P1;PMS_P2;Temp;Humidity;BMP_temperature;BMP_pressure;BME280_temperature;BME280_humidity;BME280_pressure;Samples;Min_cycle;Max_cycle;Signal;HPM_P1;HPM_P2
2021/05/12 00:00:00;;;;;;;7.93;5.38;;;;;;;15.32;nan;100480.44;5084422;28;20055;-47
2021/05/12 00:02:25;;;;;;;9.10;4.65;;;;;;;15.37;nan;100477.69;5084821;28;20024;-47
2021/05/12 00:04:51;;;;;;;5.30;4.35;;;;;;;15.38;nan;100466.59;5076379;28;20458;-45
2021/05/12 00:07:16;;;;;;;6.68;5.00;;;;;;;15.29;nan;100457.53;5083307;28;20082;-45
2021/05/12 00:09:42;;;;;;;11.27;5.20;;;;;;;15.24;nan;100467.56;5084899;28;20054;-44
2021/05/12 00:12:08;;;;;;;6.72;4.95;;;;;;;15.00;nan;100481.00;5079114;28;20023;-44
2021/05/12 00:14:36;;;;;;;7.05;4.30;;;;;;;15.15;nan;100483.56;5066000;28;20599;-48
2021/05/12 00:17:02;;;;;;;7.65;5.22;;;;;;;15.31;nan;100503.13;5078326;28;20039;-47
2021/05/12 00:19:29;;;;;;;7.57;4.32;;;;;;;15.34;nan;100506.06;5063346;28;20715;-47
2021/05/12 00:22:11;;;;;;;6.93;4.80;;;;;;;15.39;nan;100500.59;5084548;28;20393;-49
2021/05/12 00:24:40;;;;;;;8.98;5.07;;;;;;;15.33;nan;100499.03;5082444;28;20497;-46
2021/05/12 00:27:06;;;;;;;8.02;5.50;;;;;;;15.28;nan;100499.09;5077412;28;20029;-47
2021/05/12 00:29:32;;;;;;;12.93;5.22;;;;;;;15.31;nan;100503.94;5084973;28;20402;-47
2021/05/12 00:31:58;;;;;;;8.38;4.88;;;;;;;15.31;nan;100506.63;5082688;28;20035;-45
2021/05/12 00:34:23;;;;;;;9.70;5.30;;;;;;;15.30;nan;100512.31;5082932;28;20385;-47
2021/05/12 00:36:49;;;;;;;7.28;5.05;;;;;;;15.29;nan;100510.72;5078490;28;20055;-45
2021/05/12 00:39:15;;;;;;;9.48;4.90;;;;;;;15.26;nan;100512.09;5081645;28;20746;-47
2021/05/12 00:41:42;;;;;;;8.48;5.43;;;;;;;15.23;nan;100499.13;5082246;28;20027;-47
2021/05/12 00:44:17;;;;;;;8.75;5.45;;;;;;;15.15;nan;100513.25;5077599;28;20560;-45
2021/05/12 00:46:44;;;;;;;7.82;5.25;;;;;;;15.14;nan;100508.94;5080181;28;20028;-45
2021/05/12 00:49:09;;;;;;;7.03;5.43;;;;;;;15.19;nan;100511.59;5081158;28;20032;-45
2021/05/12 00:51:35;;;;;;;8.70;5.07;;;;;;;15.15;nan;100510.56;5077064;28;20030;-45
2021/05/12 00:54:00;;;;;;;9.77;5.20;;;;;;;15.20;nan;100507.81;5082465;28;20401;-49
2021/05/12 00:56:26;;;;;;;8.63;4.80;;;;;;;14.91;nan;100509.69;5081627;28;20078;-44
2021/05/12 00:58:51;;;;;;;10.50;5.35;;;;;;;15.02;nan;100506.63;5076865;28;20027;-46
2021/05/12 01:01:17;;;;;;;5.82;4.78;;;;;;;15.09;nan;100519.81;5082221;28;20115;-46
2021/05/12 01:03:42;;;;;;;9.85;5.75;;;;;;;15.13;nan;100523.53;5082248;28;20027;-45
2021/05/12 01:06:21;;;;;;;7.30;4.95;;;;;;;15.14;nan;100518.94;5076392;28;20080;-46
2021/05/12 01:08:47;;;;;;;9.10;5.28;;;;;;;15.20;nan;100529.41;5082224;28;20092;-46
2021/05/12 01:11:12;;;;;;;6.53;5.05;;;;;;;15.20;nan;100528.59;5084075;28;20470;-46
2021/05/12 01:13:38;;;;;;;8.18;5.13;;;;;;;15.25;nan;100532.03;5083208;28;20422;-45
2021/05/12 01:16:04;;;;;;;7.70;4.95;;;;;;;15.24;nan;100530.44;5075527;28;20032;-46
2021/05/12 01:18:29;;;;;;;7.03;5.03;;;;;;;15.23;nan;100528.03;5080834;28;20036;-46
2021/05/12 01:21:01;;;;;;;7.95;5.38;;;;;;;15.22;nan;100529.91;5081263;28;20023;-47
2021/05/12 01:23:31;;;;;;;6.47;4.72;;;;;;;15.19;nan;100533.19;5081347;28;20062;-45
2021/05/12 01:25:58;;;;;;;6.60;4.78;;;;;;;15.21;nan;100533.69;5078648;28;20454;-46
2021/05/12 01:28:27;;;;;;;6.93;4.80;;;;;;;15.14;nan;100546.72;5084676;28;20473;-45
2021/05/12 01:31:17;;;;;;;7.07;4.32;;;;;;;15.14;nan;100546.72;5084613;28;20024;-45
2021/05/12 01:33:43;;;;;;;8.07;5.25;;;;;;;14.69;nan;100551.38;5080884;28;20035;-47
2021/05/12 01:36:10;;;;;;;9.00;5.90;;;;;;;14.47;nan;100543.69;5083323;28;20070;-45
2021/05/12 01:38:38;;;;;;;9.50;5.18;;;;;;;14.40;nan;100547.75;5085553;28;20036;-46
2021/05/12 01:41:05;;;;;;;7.93;5.40;;;;;;;14.51;nan;100543.94;5085135;28;20039;-45
2021/05/12 01:43:33;;;;;;;9.23;5.53;;;;;;;14.34;nan;100543.47;5080686;28;21953;-46
2021/05/12 01:45:59;;;;;;;10.63;5.07;;;;;;;14.59;nan;100546.06;5083500;28;20031;-45
2021/05/12 01:48:26;;;;;;;6.90;5.55;;;;;;;14.64;nan;100548.72;5078420;28;20471;-46
2021/05/12 01:50:52;;;;;;;7.35;5.05;;;;;;;14.60;nan;100544.16;5085316;28;20380;-45
2021/05/12 01:53:18;;;;;;;7.80;5.45;;;;;;;14.73;nan;100557.84;5083612;28;20024;-48
2021/05/12 01:55:43;;;;;;;7.00;4.80;;;;;;;14.82;nan;100569.63;5063529;28;20570;-46
2021/05/12 01:58:09;;;;;;;7.97;5.82;;;;;;;14.90;nan;100568.25;5082153;28;20056;-46
2021/05/12 02:00:40;;;;;;;13.77;6.10;;;;;;;14.93;nan;100566.88;5084557;28;20028;-48
2021/05/12 02:03:09;;;;;;;8.13;5.72;;;;;;;14.91;nan;100569.06;5081726;28;20079;-46
2021/05/12 02:05:38;;;;;;;7.55;5.53;;;;;;;14.68;nan;100582.13;5084123;28;20028;-47
2021/05/12 02:08:06;;;;;;;8.48;5.65;;;;;;;14.71;nan;100581.56;5083646;28;20035;-47
2021/05/12 02:10:33;;;;;;;6.57;5.60;;;;;;;14.77;nan;100575.06;5084251;28;20552;-45
2021/05/12 02:12:59;;;;;;;8.02;5.45;;;;;;;14.84;nan;100577.44;5083946;28;20119;-45
2021/05/12 02:15:25;;;;;;;8.15;5.40;;;;;;;14.91;nan;100582.53;5080189;28;20111;-45
2021/05/12 02:17:51;;;;;;;13.85;5.57;;;;;;;14.95;nan;100580.88;5079457;28;20108;-45
2021/05/12 02:20:23;;;;;;;6.72;5.28;;;;;;;14.91;nan;100574.44;5083433;28;20082;-45
2021/05/12 02:22:49;;;;;;;6.07;5.22;;;;;;;14.92;nan;100582.25;5082512;28;20672;-47
2021/05/12 02:25:15;;;;;;;10.27;6.15;;;;;;;14.88;nan;100578.47;5083309;28;20128;-45
2021/05/12 02:27:41;;;;;;;8.07;5.55;;;;;;;14.83;nan;100578.53;5083333;28;20023;-46
2021/05/12 02:30:08;;;;;;;9.10;5.80;;;;;;;14.84;nan;100571.25;5081581;28;20058;-46
2021/05/12 02:32:34;;;;;;;7.45;5.60;;;;;;;14.82;nan;100576.91;5081815;28;20442;-45
2021/05/12 02:35:00;;;;;;;8.40;5.13;;;;;;;14.85;nan;100576.34;5077899;28;20107;-45
2021/05/12 02:37:27;;;;;;;10.25;5.88;;;;;;;14.91;nan;100574.44;5081293;28;20034;-47
2021/05/12 02:39:53;;;;;;;8.27;5.70;;;;;;;14.84;nan;100571.25;5078351;28;20099;-46
2021/05/12 02:42:19;;;;;;;6.75;5.53;;;;;;;14.91;nan;100574.44;5083098;28;20024;-45
2021/05/12 02:44:44;;;;;;;7.28;5.50;;;;;;;14.88;nan;100575.78;5083286;28;20366;-48
2021/05/12 02:47:10;;;;;;;8.68;5.60;;;;;;;14.88;nan;100574.97;5077821;28;20742;-45
2021/05/12 02:49:36;;;;;;;8.55;5.10;;;;;;;14.87;nan;100578.75;5083616;28;20028;-47
2021/05/12 02:52:03;;;;;;;8.60;5.78;;;;;;;14.88;nan;100583.88;5072444;28;20032;-46
2021/05/12 02:54:28;;;;;;;7.85;5.65;;;;;;;14.89;nan;100573.91;5081320;28;20024;-46
2021/05/12 02:56:54;;;;;;;7.72;6.00;;;;;;;14.91;nan;100574.44;5080936;28;20032;-45
2021/05/12 02:59:20;;;;;;;6.88;5.00;;;;;;;14.94;nan;100568.47;5082466;28;20477;-45
2021/05/12 03:01:46;;;;;;;7.45;5.05;;;;;;;14.94;nan;100579.28;5080540;28;20028;-47
2021/05/12 03:04:12;;;;;;;8.50;6.43;;;;;;;14.95;nan;100576.28;5063284;28;20177;-45
2021/05/12 03:06:37;;;;;;;8.98;5.70;;;;;;;14.99;nan;100573.84;5081012;28;20102;-45
2021/05/12 03:09:05;;;;;;;10.75;6.00;;;;;;;14.85;nan;100573.66;5082024;28;20024;-46
2021/05/12 03:11:32;;;;;;;10.00;6.57;;;;;;;14.90;nan;100579.03;5085055;28;20417;-46
2021/05/12 03:13:57;;;;;;;8.48;5.70;;;;;;;14.94;nan;100585.47;5085696;28;20182;-46
2021/05/12 03:16:23;;;;;;;7.43;6.00;;;;;;;14.96;nan;100583.28;5085409;28;20114;-45
2021/05/12 03:18:48;;;;;;;10.52;6.88;;;;;;;14.82;nan;100577.72;5081420;28;20017;-48
2021/05/12 03:21:14;;;;;;;11.25;6.25;;;;;;;14.46;nan;100581.72;5085450;28;20035;-46
2021/05/12 03:23:39;;;;;;;7.75;6.15;;;;;;;14.64;nan;100586.47;5087399;28;20024;-46
2021/05/12 03:26:05;;;;;;;10.02;6.28;;;;;;;14.71;nan;100586.94;5083452;28;20497;-46
2021/05/12 03:28:31;;;;;;;6.70;5.57;;;;;;;14.75;nan;100582.63;5084157;28;20028;-46
2021/05/12 03:30:56;;;;;;;9.88;5.63;;;;;;;14.56;nan;100584.38;5084533;28;20036;-48
2021/05/12 03:33:22;;;;;;;7.18;6.22;;;;;;;14.28;nan;100585.00;5085208;28;20120;-45
2021/05/12 03:35:47;;;;;;;10.02;5.97;;;;;;;14.32;nan;100577.97;5086244;28;20081;-47
2021/05/12 03:38:13;;;;;;;8.48;6.35;;;;;;;14.49;nan;100586.53;5084594;28;20066;-46
2021/05/12 03:40:41;;;;;;;8.18;5.80;;;;;;;14.71;nan;100580.75;5085014;28;20038;-45
2021/05/12 03:43:07;;;;;;;8.85;6.50;;;;;;;14.51;nan;100595.97;5085676;28;20071;-46
2021/05/12 03:45:33;;;;;;;7.18;5.28;;;;;;;14.62;nan;100599.44;5084314;28;20107;-46
2021/05/12 03:47:58;;;;;;;8.23;6.05;;;;;;;14.85;nan;100599.81;5085168;28;20068;-45
2021/05/12 03:50:26;;;;;;;11.48;8.27;;;;;;;14.62;nan;100612.09;5086435;28;20062;-48
2021/05/12 03:52:52;;;;;;;11.05;7.78;;;;;;;14.73;nan;100605.56;5086346;28;20126;-45
2021/05/12 03:55:17;;;;;;;10.32;7.80;;;;;;;14.62;nan;100604.00;5082051;28;20393;-45
2021/05/12 03:57:44;;;;;;;10.48;7.82;;;;;;;14.47;nan;100608.38;5083155;28;20034;-48
2021/05/12 04:00:10;;;;;;;10.32;7.57;;;;;;;14.62;nan;100610.22;5083443;28;20400;-45
2021/05/12 04:02:36;;;;;;;16.33;10.52;;;;;;;14.66;nan;100605.88;5080508;28;20140;-47
2021/05/12 04:05:03;;;;;;;15.23;10.43;;;;;;;14.47;nan;100602.19;5080755;28;20873;-45
2021/05/12 04:07:28;;;;;;;15.45;10.55;;;;;;;14.51;nan;100603.25;5084405;28;20032;-46
2021/05/12 04:09:54;;;;;;;12.40;9.45;;;;;;;14.68;nan;100605.59;5085162;28;20676;-46
2021/05/12 04:12:20;;;;;;;14.10;9.32;;;;;;;14.69;nan;100610.69;5082483;28;20027;-46
2021/05/12 04:14:46;;;;;;;13.82;9.38;;;;;;;14.63;nan;100605.63;5084454;28;20386;-47
2021/05/12 04:17:12;;;;;;;13.77;9.95;;;;;;;14.53;nan;100606.47;5082171;28;20545;-45
2021/05/12 04:19:37;;;;;;;16.52;11.30;;;;;;;14.54;nan;100605.38;5080994;28;20036;-47
2021/05/12 04:22:03;;;;;;;18.50;12.35;;;;;;;14.52;nan;100604.84;5080918;28;20035;-48
2021/05/12 04:24:29;;;;;;;17.05;10.85;;;;;;;14.56;nan;100605.94;5085728;28;20020;-46
2021/05/12 04:26:55;;;;;;;16.65;10.80;;;;;;;14.78;nan;100610.94;5081080;28;20036;-47
2021/05/12 04:29:21;;;;;;;17.50;11.32;;;;;;;14.76;nan;100613.91;5078835;28;20423;-47
2021/05/12 04:31:46;;;;;;;17.13;11.35;;;;;;;14.74;nan;100626.88;5083320;28;20627;-46
2021/05/12 04:34:12;;;;;;;14.20;10.50;;;;;;;14.92;nan;100622.72;5083964;28;20050;-45
2021/05/12 04:36:38;;;;;;;16.20;11.52;;;;;;;14.85;nan;100624.09;5084384;28;20039;-46
2021/05/12 04:39:05;;;;;;;16.90;12.52;;;;;;;14.64;nan;100632.31;5082919;28;20027;-47
2021/05/12 04:41:30;;;;;;;18.13;12.50;;;;;;;14.66;nan;100630.13;5084542;28;20371;-47
2021/05/12 04:43:56;;;;;;;17.33;11.52;;;;;;;14.71;nan;100621.19;5084245;28;20062;-47
2021/05/12 04:46:22;;;;;;;19.00;12.85;;;;;;;14.62;nan;100629.09;5081792;28;20111;-47
2021/05/12 04:48:48;;;;;;;17.83;12.63;;;;;;;14.73;nan;100633.34;5083501;28;20036;-46
2021/05/12 04:51:13;;;;;;;21.88;14.23;;;;;;;14.80;nan;100641.94;5077159;28;20077;-45
2021/05/12 04:53:39;;;;;;;23.52;14.90;;;;;;;14.78;nan;100638.72;5082317;28;20481;-46
2021/05/12 04:56:04;;;;;;;25.80;15.40;;;;;;;14.57;nan;100644.50;5076489;28;20182;-45
2021/05/12 04:58:31;;;;;;;27.13;17.77;;;;;;;14.29;nan;100649.41;5083118;28;20039;-46
2021/05/12 05:00:56;;;;;;;27.17;16.17;;;;;;;14.34;nan;100646.69;5085428;28;20034;-46
2021/05/12 05:03:22;;;;;;;28.73;17.42;;;;;;;14.20;nan;100661.84;5060839;28;20032;-45
2021/05/12 05:05:48;;;;;;;33.67;19.67;;;;;;;13.98;nan;100659.44;5082117;28;20040;-49
2021/05/12 05:08:14;;;;;;;34.28;19.75;;;;;;;13.90;nan;100660.03;5081007;28;20074;-46
2021/05/12 05:10:39;;;;;;;30.40;18.98;;;;;;;13.94;nan;100668.34;5080198;28;20020;-45
2021/05/12 05:13:05;;;;;;;38.13;20.83;;;;;;;13.73;nan;100672.97;5083875;28;20043;-46
2021/05/12 05:15:31;;;;;;;35.15;19.95;;;;;;;13.83;nan;100672.97;5064505;28;20070;-46
2021/05/12 05:17:57;;;;;;;37.90;19.67;;;;;;;13.71;nan;100684.00;5084377;28;20047;-45
2021/05/12 05:20:24;;;;;;;31.92;19.17;;;;;;;13.73;nan;100672.97;5081226;28;20060;-45
2021/05/12 05:22:50;;;;;;;42.83;21.77;;;;;;;13.71;nan;100677.81;5081342;28;20023;-46
2021/05/12 05:25:15;;;;;;;35.55;19.88;;;;;;;13.91;nan;100669.72;5080752;28;20668;-46
2021/05/12 05:27:41;;;;;;;34.97;19.33;;;;;;;13.93;nan;100662.16;5080211;28;20486;-46
2021/05/12 05:30:07;;;;;;;34.72;19.77;;;;;;;13.88;nan;100670.25;5077667;28;20028;-46
2021/05/12 05:32:33;;;;;;;39.53;20.55;;;;;;;13.84;nan;100677.28;5078761;28;20028;-46
2021/05/12 05:34:58;;;;;;;34.58;18.35;;;;;;;13.85;nan;100684.28;5082887;28;20020;-46
2021/05/12 05:37:24;;;;;;;29.98;17.88;;;;;;;13.83;nan;100689.94;5085242;28;20055;-45
2021/05/12 05:39:51;;;;;;;34.75;19.08;;;;;;;13.71;nan;100689.41;5082958;28;20119;-46
2021/05/12 05:42:17;;;;;;;40.15;21.00;;;;;;;13.70;nan;100695.06;5083640;28;20028;-45
2021/05/12 05:44:42;;;;;;;41.35;20.92;;;;;;;13.55;nan;100693.97;5077454;28;20086;-45
2021/05/12 05:47:31;;;;;;;;;;;;;;;;;;;;;
2021/05/12 05:50:06;;;;;;;36.72;19.83;;;;;;;13.71;nan;100699.34;5085856;28;20147;-46
2021/05/12 05:52:31;;;;;;;27.63;16.67;;;;;;;13.82;nan;100698.25;5084670;28;20028;-45
2021/05/12 05:54:58;;;;;;;34.13;16.92;;;;;;;13.85;nan;100695.03;5076334;28;20035;-46
2021/05/12 05:57:24;;;;;;;33.35;17.10;;;;;;;13.87;nan;100698.28;5082467;28;20028;-45
2021/05/12 05:59:49;;;;;;;33.83;16.33;;;;;;;13.90;nan;100697.72;5079687;28;20031;-45
2021/05/12 06:02:15;;;;;;;26.85;15.63;;;;;;;14.01;nan;100702.03;5084118;28;20078;-45
2021/05/12 06:04:40;;;;;;;26.08;14.95;;;;;;;14.18;nan;100697.16;5084441;28;20051;-46
2021/05/12 06:07:06;;;;;;;28.27;15.68;;;;;;;14.35;nan;100701.41;5083545;28;20471;-46
2021/05/12 06:09:31;;;;;;;24.80;14.88;;;;;;;14.35;nan;100698.69;5079238;28;20024;-45
2021/05/12 06:11:57;;;;;;;23.42;14.50;;;;;;;14.17;nan;100708.19;5084472;28;20028;-45
2021/05/12 06:14:23;;;;;;;21.92;13.57;;;;;;;14.21;nan;100701.19;5084264;28;20249;-46
2021/05/12 06:16:51;;;;;;;31.55;16.77;;;;;;;14.27;nan;100701.97;5083602;28;20024;-45
2021/05/12 06:19:17;;;;;;;26.73;15.38;;;;;;;14.31;nan;100706.53;5082470;28;20027;-45
2021/05/12 06:21:43;;;;;;;23.73;15.50;;;;;;;14.74;nan;100710.47;5080671;28;20031;-45
2021/05/12 06:24:08;;;;;;;25.17;15.35;;;;;;;14.61;nan;100712.94;5077973;28;20032;-46
2021/05/12 06:26:37;;;;;;;35.83;18.40;;;;;;;14.41;nan;100716.50;5084578;28;20015;-45
2021/05/12 06:29:03;;;;;;;35.08;20.77;;;;;;;14.28;nan;100717.06;5079019;28;20669;-46
2021/05/12 06:31:28;;;;;;;28.65;16.85;;;;;;;14.34;nan;100721.34;5084316;28;20500;-45
2021/05/12 06:33:54;;;;;;;30.05;17.17;;;;;;;14.29;nan;100715.97;5074772;28;20024;-46
2021/05/12 06:36:20;;;;;;;27.20;16.02;;;;;;;14.52;nan;100718.09;5082393;28;20031;-45
2021/05/12 06:38:47;;;;;;;26.75;15.55;;;;;;;14.46;nan;100716.50;5084038;28;20319;-45
2021/05/12 06:41:13;;;;;;;29.33;15.80;;;;;;;14.59;nan;100718.63;5083301;28;20490;-46
2021/05/12 06:43:38;;;;;;;31.63;15.77;;;;;;;14.94;nan;100719.56;5084787;28;20052;-45
2021/05/12 06:46:04;;;;;;;30.50;16.52;;;;;;;14.90;nan;100715.78;5065809;28;20056;-45
2021/05/12 06:48:29;;;;;;;26.83;15.48;;;;;;;15.12;nan;100724.31;5065339;28;20118;-45
2021/05/12 06:50:55;;;;;;;23.92;15.13;;;;;;;14.73;nan;100727.75;5087960;28;20023;-45
2021/05/12 06:53:28;;;;;;;28.13;15.93;;;;;;;14.88;nan;100721.44;5084761;28;20015;-45
2021/05/12 06:55:54;;;;;;;27.83;15.52;;;;;;;14.85;nan;100718.50;5083047;28;20020;-45
2021/05/12 06:58:20;;;;;;;21.65;13.95;;;;;;;15.31;nan;100710.97;5087555;28;20051;-46
2021/05/12 07:00:46;;;;;;;23.05;14.65;;;;;;;15.48;nan;100708.69;5083931;28;20271;-45
2021/05/12 07:03:11;;;;;;;24.25;14.00;;;;;;;15.31;nan;100711.78;5086438;28;20052;-45
2021/05/12 07:05:36;;;;;;;29.17;16.13;;;;;;;15.56;nan;100713.47;5064245;28;20508;-45
2021/05/12 07:08:02;;;;;;;27.17;15.18;;;;;;;15.66;nan;100715.34;5082994;28;20563;-45
2021/05/12 07:10:27;;;;;;;22.45;13.98;;;;;;;15.82;nan;100724.13;5086901;28;20027;-45
2021/05/12 07:12:54;;;;;;;24.15;12.93;;;;;;;16.36;nan;100714.97;5088027;28;20028;-47
2021/05/12 07:15:20;;;;;;;20.08;13.05;;;;;;;16.90;nan;100712.69;5083565;28;20169;-46
2021/05/12 07:17:48;;;;;;;30.25;14.38;;;;;;;16.71;nan;100719.97;5080567;28;20059;-47
2021/05/12 07:20:13;;;;;;;23.10;12.48;;;;;;;16.67;nan;100723.53;5086945;28;20024;-46
2021/05/12 07:22:39;;;;;;;17.67;10.32;;;;;;;16.32;nan;100715.50;5075572;28;20025;-45
2021/05/12 07:25:05;;;;;;;17.23;10.80;;;;;;;16.97;nan;100725.88;5081360;28;20177;-46
2021/05/12 07:27:31;;;;;;;16.08;10.48;;;;;;;15.96;nan;100728.56;5074087;28;20028;-46
2021/05/12 07:29:56;;;;;;;17.08;10.38;;;;;;;15.81;nan;100727.91;5081982;28;20401;-45
2021/05/12 07:32:22;;;;;;;19.00;11.27;;;;;;;15.72;nan;100735.81;5082101;28;20028;-46
2021/05/12 07:34:51;;;;;;;15.30;10.82;;;;;;;15.74;nan;100740.94;5083095;28;20029;-45
2021/05/12 07:37:17;;;;;;;17.00;10.40;;;;;;;15.70;nan;100733.38;5080211;28;20032;-45
2021/05/12 07:39:42;;;;;;;15.30;9.95;;;;;;;16.19;nan;100732.44;5083803;28;20032;-45
2021/05/12 07:42:08;;;;;;;17.17;10.20;;;;;;;16.23;nan;100738.06;5084187;28;20300;-45
2021/05/12 07:44:34;;;;;;;16.35;9.75;;;;;;;16.27;nan;100745.31;5079287;28;20032;-47
2021/05/12 07:47:00;;;;;;;13.52;8.57;;;;;;;16.46;nan;100737.25;5085422;28;20367;-46
2021/05/12 07:49:25;;;;;;;15.32;10.05;;;;;;;15.87;nan;100743.00;5083198;28;20016;-45
2021/05/12 07:51:51;;;;;;;18.13;10.30;;;;;;;15.92;nan;100746.44;5081663;28;20440;-46
2021/05/12 07:54:17;;;;;;;17.80;11.40;;;;;;;15.67;nan;100752.88;5082623;28;20082;-46
2021/05/12 07:56:42;;;;;;;13.48;8.98;;;;;;;16.05;nan;100753.09;5079755;28;20052;-45
2021/05/12 07:59:08;;;;;;;15.07;10.25;;;;;;;15.85;nan;100751.38;5082757;28;20063;-46
2021/05/12 08:01:39;;;;;;;17.63;10.10;;;;;;;15.96;nan;100752.06;5081793;28;20121;-45
2021/05/12 08:04:05;;;;;;;16.60;9.00;;;;;;;16.24;nan;100754.00;5079995;28;20028;-45
2021/05/12 08:06:30;;;;;;;15.40;9.75;;;;;;;15.99;nan;100752.34;5079292;28;20039;-46
2021/05/12 08:08:56;;;;;;;16.13;10.10;;;;;;;16.40;nan;100761.94;5081217;28;20035;-45
2021/05/12 08:11:22;;;;;;;16.52;11.20;;;;;;;15.91;nan;100765.63;5079384;28;20016;-46
2021/05/12 08:13:48;;;;;;;13.95;9.68;;;;;;;15.87;nan;100760.00;5077715;28;20024;-46
2021/05/12 08:16:14;;;;;;;14.13;9.75;;;;;;;15.83;nan;100769.78;5082915;28;20028;-46
2021/05/12 08:18:39;;;;;;;13.75;9.80;;;;;;;15.48;nan;100773.50;5063894;28;20492;-45
2021/05/12 08:21:06;;;;;;;16.50;11.00;;;;;;;15.84;nan;100770.56;5081235;28;20042;-46
2021/05/12 08:23:32;;;;;;;13.60;9.57;;;;;;;15.57;nan;100773.69;5079391;28;20056;-45
2021/05/12 08:25:58;;;;;;;19.02;11.95;;;;;;;15.10;nan;100778.56;5079219;28;20122;-45
2021/05/12 08:28:23;;;;;;;13.77;9.10;;;;;;;15.50;nan;100778.63;5084437;28;20073;-45
2021/05/12 08:30:50;;;;;;;15.75;9.90;;;;;;;15.50;nan;100773.22;5085078;28;20048;-45
2021/05/12 08:33:16;;;;;;;14.50;9.07;;;;;;;15.86;nan;100779.19;5072330;28;20070;-47
2021/05/12 08:35:44;;;;;;;16.25;9.05;;;;;;;15.58;nan;100783.41;5082872;28;20028;-45
2021/05/12 08:38:15;;;;;;;11.43;7.78;;;;;;;15.76;nan;100779.25;5084013;28;20031;-46
2021/05/12 08:40:46;;;;;;;10.10;7.47;;;;;;;16.25;nan;100781.84;5081204;28;20024;-46
2021/05/12 08:43:13;;;;;;;11.27;7.95;;;;;;;16.42;nan;100787.63;5083448;28;20114;-46
2021/05/12 08:45:39;;;;;;;11.30;7.40;;;;;;;16.66;nan;100789.53;5072516;28;20024;-46
2021/05/12 08:48:11;;;;;;;9.13;7.10;;;;;;;16.09;nan;100791.16;5082256;28;20120;-45
2021/05/12 08:50:37;;;;;;;11.88;7.65;;;;;;;15.83;nan;100795.97;5084287;28;20043;-47
2021/05/12 08:53:03;;;;;;;14.00;7.57;;;;;;;15.65;nan;100794.75;5082298;28;20024;-45
2021/05/12 08:55:30;;;;;;;11.77;7.90;;;;;;;15.54;nan;100793.16;5083309;28;20385;-45
2021/05/12 08:57:56;;;;;;;14.32;8.25;;;;;;;15.83;nan;100787.88;5083177;28;20547;-45
2021/05/12 09:00:22;;;;;;;12.25;7.95;;;;;;;16.05;nan;100784.72;5083800;28;20024;-45
2021/05/12 09:02:47;;;;;;;11.40;7.80;;;;;;;15.96;nan;100801.53;5081462;28;20160;-48
2021/05/12 09:05:13;;;;;;;11.95;7.25;;;;;;;15.77;nan;100797.09;5080612;28;20020;-46
2021/05/12 09:07:39;;;;;;;9.82;7.25;;;;;;;15.81;nan;100798.16;5074663;28;20123;-45
2021/05/12 09:10:06;;;;;;;12.45;8.88;;;;;;;15.74;nan;100798.47;5079880;28;20097;-45
2021/05/12 09:12:53;;;;;;;10.75;7.30;;;;;;;15.52;nan;100796.16;5064992;28;20094;-46
2021/05/12 09:15:21;;;;;;;11.20;6.85;;;;;;;15.42;nan;100797.00;5081110;28;20406;-45
2021/05/12 09:17:49;;;;;;;10.10;7.80;;;;;;;15.52;nan;100803.44;5082518;28;20020;-46
2021/05/12 09:20:24;;;;;;;15.40;8.10;;;;;;;15.32;nan;100809.75;5081377;28;20034;-45
2021/05/12 09:22:58;;;;;;;12.95;7.55;;;;;;;15.56;nan;100807.19;5082469;28;20469;-45
2021/05/12 09:25:24;;;;;;;11.40;8.35;;;;;;;15.74;nan;100801.16;5082079;28;20456;-46
2021/05/12 09:27:52;;;;;;;15.93;9.18;;;;;;;15.38;nan;100803.25;5079838;28;20067;-45
2021/05/12 09:30:24;;;;;;;11.32;8.07;;;;;;;15.66;nan;100801.78;5080855;28;20585;-45
2021/05/12 09:32:50;;;;;;;13.00;8.32;;;;;;;15.68;nan;100805.00;5081496;28;20028;-45
2021/05/12 09:35:22;;;;;;;15.07;8.02;;;;;;;15.91;nan;100809.69;5082499;28;20693;-45
2021/05/12 09:37:48;;;;;;;13.65;10.15;;;;;;;15.26;nan;100821.66;5078916;28;20042;-45
2021/05/12 09:40:18;;;;;;;12.60;9.23;;;;;;;15.34;nan;100813.78;5079323;28;20023;-45
2021/05/12 09:42:45;;;;;;;14.48;8.77;;;;;;;15.55;nan;100800.97;5083172;28;20034;-45
2021/05/12 09:45:15;;;;;;;12.77;11.23;;;;;;;16.02;nan;100808.53;5080857;28;20024;-46
2021/05/12 09:47:48;;;;;;;10.52;8.52;;;;;;;16.00;nan;100810.72;5082306;28;20035;-45
2021/05/12 09:50:32;;;;;;;13.65;8.43;;;;;;;15.58;nan;100818.50;5080624;28;20046;-45
2021/05/12 09:53:02;;;;;;;13.70;9.45;;;;;;;15.61;nan;100815.28;5079028;28;20031;-46
2021/05/12 09:55:35;;;;;;;14.15;9.90;;;;;;;15.58;nan;100815.81;5062179;28;20021;-46
2021/05/12 09:58:08;;;;;;;13.70;10.50;;;;;;;15.96;nan;100823.16;5077414;28;20033;-46
2021/05/12 10:00:36;;;;;;;16.50;11.32;;;;;;;15.83;nan;100818.41;5080802;28;20024;-45
2021/05/12 10:03:04;;;;;;;12.55;9.80;;;;;;;16.24;nan;100818.06;5078798;28;20066;-45
2021/05/12 10:05:58;;;;;;;13.27;9.80;;;;;;;15.98;nan;100821.00;5081550;28;20036;-46
2021/05/12 10:08:26;;;;;;;11.73;9.32;;;;;;;16.11;nan;100821.41;5082368;28;20036;-46
2021/05/12 10:11:06;;;;;;;12.65;9.95;;;;;;;15.51;nan;100826.13;5062694;28;20066;-46
2021/05/12 10:13:33;;;;;;;16.02;12.35;;;;;;;15.41;nan;100830.47;5079503;28;20252;-46
2021/05/12 10:16:00;;;;;;;16.10;12.23;;;;;;;15.29;nan;100837.31;5079445;28;20094;-46
2021/05/12 10:18:26;;;;;;;16.17;12.32;;;;;;;15.68;nan;100826.59;5080163;28;20058;-46
2021/05/12 10:21:02;;;;;;;13.55;9.32;;;;;;;15.99;nan;100833.41;5083443;28;20024;-45
2021/05/12 10:23:28;;;;;;;13.30;9.30;;;;;;;16.35;nan;100832.31;5086928;28;20028;-46
2021/05/12 10:25:55;;;;;;;11.63;9.60;;;;;;;16.60;nan;100827.47;5082344;28;20028;-46
2021/05/12 10:28:21;;;;;;;16.08;9.32;;;;;;;17.05;nan;100825.34;5081385;28;20496;-45
2021/05/12 10:30:48;;;;;;;12.23;8.90;;;;;;;16.77;nan;100827.03;5085153;28;20047;-46
2021/05/12 10:33:15;;;;;;;15.75;10.35;;;;;;;16.67;nan;100826.34;5081441;28;20078;-45
2021/05/12 10:35:42;;;;;;;11.55;9.13;;;;;;;16.72;nan;100823.59;5086534;28;20389;-45
2021/05/12 10:38:08;;;;;;;9.70;8.38;;;;;;;16.92;nan;100829.59;5084166;28;20413;-46
2021/05/12 10:40:41;;;;;;;14.27;8.27;;;;;;;17.18;nan;100824.66;5082995;28;20055;-46
2021/05/12 10:48:36;;;;;;;10.68;7.70;;;;;;;17.70;nan;100812.06;5084314;28;20028;-46
2021/05/12 10:51:05;;;;;;;10.73;7.40;;;;;;;18.45;nan;100815.72;5083673;28;20986;-46
2021/05/12 10:53:32;;;;;;;11.90;7.05;;;;;;;18.79;nan;100813.47;5082290;28;20027;-46
2021/05/12 10:55:58;;;;;;;9.88;6.65;;;;;;;19.26;100.00;119358.19;5083625;28;20073;-47
2021/05/12 10:58:29;;;;;;;8.93;7.68;;;;;;;-144.13;100.00;64086.75;5080898;28;20513;-47
2021/05/12 11:01:01;;;;;;;10.43;7.40;;;;;;;-144.13;100.00;64086.75;5084452;28;20032;-49
2021/05/12 11:03:52;;;;;;;12.38;7.70;;;;;;;-144.13;100.00;64086.75;5082604;28;20088;-45
2021/05/12 11:06:37;;;;;;;11.45;7.38;;;;;;;-144.13;100.00;64086.75;5082709;28;20074;-46
2021/05/12 11:09:06;;;;;;;10.52;7.85;;;;;;;-144.13;100.00;64086.75;5079357;28;20036;-46
2021/05/12 11:11:31;;;;;;;11.23;7.95;;;;;;;-144.13;100.00;64086.75;5084212;28;20027;-46
2021/05/12 11:14:24;;;;;;;10.38;7.70;;;;;;;-144.13;100.00;64086.75;5081285;28;20058;-46
2021/05/12 11:17:19;;;;;;;10.88;7.40;;;;;;;-144.13;100.00;64086.75;5081500;28;20035;-45
2021/05/12 11:19:46;;;;;;;10.35;7.88;;;;;;;-144.13;100.00;64086.75;5071596;28;20089;-47
2021/05/12 11:22:28;;;;;;;11.70;8.13;;;;;;;-144.13;100.00;64086.75;5070224;28;20038;-46
2021/05/12 11:33:20;;;;;;;12.70;7.50;;;;;;;-144.13;100.00;64086.75;5076422;28;20058;-45
2021/05/12 11:35:49;;;;;;;12.02;7.75;;;;;;;-144.13;100.00;64086.75;5058173;28;20024;-46
2021/05/12 11:38:16;;;;;;;9.32;6.43;;;;;;;-144.13;100.00;64086.75;5078517;28;20075;-46
2021/05/12 11:41:04;;;;;;;10.15;7.68;;;;;;;-144.13;100.00;64086.75;5079115;28;20089;-46
2021/05/12 11:43:43;;;;;;;9.25;6.70;;;;;;;-144.13;100.00;64086.75;5079319;28;20036;-46
2021/05/12 11:46:33;;;;;;;8.60;7.05;;;;;;;-144.13;100.00;64086.75;5077333;28;20474;-45